createdAt,value
2022-09-14T00:02:05.005Z,3.78
2022-09-14T00:05:06.798Z,3.70
2022-09-14T00:08:08.480Z,4.15
2022-09-14T00:11:14.910Z,5.20
2022-09-14T00:14:17.195Z,4.60
2022-09-14T00:17:18.848Z,4.30
2022-09-14T00:20:20.312Z,4.20
2022-09-14T00:23:21.702Z,4.43
2022-09-14T00:26:23.722Z,4.18
2022-09-14T00:29:25.236Z,4.47
2022-09-14T00:32:26.681Z,4.70
2022-09-14T00:35:28.236Z,4.25
2022-09-14T00:38:29.662Z,5.18
2022-09-14T00:41:34.845Z,5.88
2022-09-14T00:44:36.305Z,6.80
2022-09-14T00:47:37.768Z,7.15
2022-09-14T00:50:39.374Z,7.20
2022-09-14T00:53:41.156Z,6.95
2022-09-14T00:56:42.710Z,6.22
2022-09-14T00:59:46.435Z,6.00
2022-09-14T01:02:48.004Z,6.35
2022-09-14T01:06:23.350Z,5.88
2022-09-14T01:09:53.273Z,5.85
2022-09-14T01:13:22.957Z,5.70
2022-09-14T01:16:35.027Z,6.13
2022-09-14T01:20:03.860Z,5.80
2022-09-14T01:23:14.527Z,6.00
2022-09-14T01:26:58.650Z,6.00
2022-09-14T01:30:18.964Z,5.97
2022-09-14T01:33:37.396Z,6.05
2022-09-14T01:36:42.745Z,5.93
2022-09-14T01:39:49.928Z,5.72
2022-09-14T01:42:57.617Z,5.80
2022-09-14T01:46:10.915Z,5.93
2022-09-14T01:49:21.693Z,5.65
2022-09-14T01:52:33.491Z,5.45
2022-09-14T01:55:43.785Z,5.50
2022-09-14T01:58:50.191Z,6.00
2022-09-14T02:02:19.859Z,6.53
2022-09-14T02:05:33.181Z,6.95
2022-09-14T02:08:35.306Z,7.65
2022-09-14T02:11:38.032Z,7.75
2022-09-14T02:14:39.527Z,8.02
2022-09-14T02:17:41.540Z,8.25
2022-09-14T02:20:46.431Z,7.90
2022-09-14T02:23:49.103Z,8.00
2022-09-14T02:26:51.899Z,8.15
2022-09-14T02:29:53.785Z,7.85
2022-09-14T02:36:35.384Z,8.10
2022-09-14T02:40:07.472Z,7.93
2022-09-14T02:43:32.859Z,8.30
2022-09-14T02:46:52.629Z,8.07
2022-09-14T02:50:00.280Z,7.97
2022-09-14T02:53:06.934Z,7.88
2022-09-14T02:56:11.041Z,6.82
2022-09-14T02:59:12.769Z,6.38
2022-09-14T03:02:14.323Z,6.40
2022-09-14T03:05:15.859Z,6.18
2022-09-14T03:08:17.318Z,5.75
2022-09-14T03:11:18.775Z,5.82
2022-09-14T03:14:20.209Z,5.47
2022-09-14T03:17:21.622Z,5.93
2022-09-14T03:20:29.098Z,5.78
2022-09-14T03:23:30.620Z,5.00
2022-09-14T03:26:36.685Z,4.80
2022-09-14T03:29:38.150Z,5.00
2022-09-14T03:32:39.749Z,5.05
2022-09-14T03:35:41.154Z,4.50
2022-09-14T03:38:47.753Z,5.45
2022-09-14T03:41:49.162Z,5.30
2022-09-14T03:44:50.565Z,5.25
2022-09-14T03:47:51.968Z,4.93
2022-09-14T03:50:53.383Z,5.10
2022-09-14T03:53:55.761Z,5.50
2022-09-14T03:56:57.155Z,5.10
2022-09-14T03:59:58.909Z,5.35
2022-09-14T04:03:00.599Z,5.32
2022-09-14T04:06:05.298Z,5.18
2022-09-14T04:09:06.755Z,5.40
2022-09-14T04:12:08.511Z,5.10
2022-09-14T04:15:10.103Z,5.32
2022-09-14T04:18:12.205Z,5.00
2022-09-14T04:21:19.292Z,5.43
2022-09-14T04:24:21.055Z,5.57
2022-09-14T04:27:23.173Z,5.22
2022-09-14T04:30:24.592Z,4.90
2022-09-14T04:33:29.584Z,5.32
2022-09-14T04:36:31.549Z,5.25
2022-09-14T04:39:33.154Z,5.32
2022-09-14T04:42:34.557Z,4.97
2022-09-14T04:45:37.003Z,4.90
2022-09-14T04:48:38.858Z,5.00
2022-09-14T04:54:41.594Z,5.53
2022-09-14T04:57:43.005Z,5.80
2022-09-14T05:00:44.402Z,5.75
2022-09-14T05:03:46.581Z,6.25
2022-09-14T05:06:48.028Z,5.43
2022-09-14T05:09:49.438Z,6.30
2022-09-14T05:12:50.901Z,5.75
2022-09-14T05:15:52.387Z,5.65
2022-09-14T05:18:56.074Z,5.88
2022-09-14T05:21:57.482Z,6.20
2022-09-14T05:24:58.929Z,5.70
2022-09-14T05:28:00.374Z,5.60
2022-09-14T05:31:06.876Z,5.88
2022-09-14T05:34:10.165Z,5.85
2022-09-14T05:37:12.737Z,5.30
2022-09-14T05:40:14.324Z,5.60
2022-09-14T05:43:15.747Z,5.70
2022-09-14T05:46:22.122Z,5.57
2022-09-14T05:49:25.194Z,5.22
2022-09-14T05:52:29.373Z,5.75
2022-09-14T05:55:30.919Z,5.82
2022-09-14T05:58:32.728Z,5.28
2022-09-14T06:01:34.188Z,5.60
2022-09-14T06:04:36.170Z,5.90
2022-09-14T06:10:39.051Z,5.57
2022-09-14T06:13:41.122Z,5.85
2022-09-14T06:16:42.524Z,5.82
2022-09-14T06:19:43.991Z,5.85
2022-09-14T06:22:45.608Z,5.72
2022-09-14T06:25:47.041Z,5.93
2022-09-14T06:28:49.414Z,6.10
2022-09-14T06:31:50.836Z,5.95
2022-09-14T06:34:52.230Z,5.85
2022-09-14T06:37:54.538Z,6.22
2022-09-14T06:40:57.710Z,5.60
2022-09-14T06:44:01.605Z,6.50
2022-09-14T06:47:03.261Z,5.55
2022-09-14T06:50:05.207Z,5.45
2022-09-14T06:56:08.096Z,5.30
2022-09-14T06:59:12.542Z,5.38
2022-09-14T07:02:14.118Z,5.60
2022-09-14T07:05:15.647Z,5.18
2022-09-14T07:08:17.029Z,5.40
2022-09-14T07:11:21.006Z,5.18
2022-09-14T07:14:22.615Z,5.47
2022-09-14T07:17:24.024Z,5.25
2022-09-14T07:20:25.465Z,5.50
2022-09-14T07:23:26.881Z,4.70
2022-09-14T07:26:35.265Z,4.85
2022-09-14T07:29:36.660Z,5.07
2022-09-14T07:32:38.353Z,5.57
2022-09-14T07:35:40.048Z,5.45
2022-09-14T07:38:52.557Z,5.20
2022-09-14T07:41:55.451Z,5.25
2022-09-14T07:44:57.574Z,4.80
2022-09-14T07:48:03.160Z,5.18
2022-09-14T07:51:07.644Z,5.55
2022-09-14T07:54:12.403Z,5.28
2022-09-14T07:57:14.660Z,5.10
2022-09-14T08:00:16.501Z,4.80
2022-09-14T08:06:24.282Z,4.57
2022-09-14T08:09:26.594Z,4.25
2022-09-14T08:12:28.836Z,4.65
2022-09-14T08:15:31.770Z,4.40
2022-09-14T08:18:35.170Z,4.32
2022-09-14T08:21:37.073Z,4.35
2022-09-14T08:27:40.121Z,3.90
2022-09-14T08:30:41.546Z,4.25
2022-09-14T08:33:45.331Z,4.03
2022-09-14T08:36:47.339Z,3.95
2022-09-14T08:39:51.643Z,4.38
2022-09-14T08:42:58.647Z,4.57
2022-09-14T08:46:04.628Z,4.90
2022-09-14T08:49:18.842Z,4.50
2022-09-14T08:52:32.344Z,4.53
2022-09-14T08:55:41.250Z,9.70
2022-09-14T08:59:07.929Z,4.60
2022-09-14T09:02:40.609Z,5.05
2022-09-14T09:05:53.559Z,4.70
2022-09-14T09:09:23.984Z,4.10
2022-09-14T09:12:28.032Z,4.85
2022-09-14T09:15:32.286Z,4.43
2022-09-14T09:18:47.985Z,4.15
2022-09-14T09:21:50.448Z,4.30
2022-09-14T09:24:55.364Z,4.70
2022-09-14T09:28:09.719Z,4.05
2022-09-14T09:31:15.005Z,3.97
2022-09-14T09:34:36.110Z,4.35
2022-09-14T09:37:57.910Z,4.15
2022-09-14T09:41:02.279Z,3.83
2022-09-14T09:44:11.135Z,4.07
2022-09-14T09:47:12.879Z,4.00
2022-09-14T09:53:18.558Z,3.88
2022-09-14T09:56:31.928Z,3.83
2022-09-14T09:59:42.350Z,3.95
2022-09-14T10:02:44.115Z,3.70
2022-09-14T10:08:47.476Z,4.17
2022-09-14T10:11:58.395Z,4.43
2022-09-14T10:15:17.450Z,4.27
2022-09-14T10:18:28.325Z,3.85
2022-09-14T10:21:31.320Z,4.07
2022-09-14T10:24:35.937Z,3.88
2022-09-14T10:27:46.124Z,3.95
2022-09-14T10:30:53.381Z,4.57
2022-09-14T10:33:57.665Z,3.90
2022-09-14T10:37:36.172Z,4.13
2022-09-14T10:40:43.904Z,4.13
2022-09-14T10:44:43.185Z,3.13
2022-09-14T10:48:02.594Z,3.70
2022-09-14T10:51:20.551Z,3.50
2022-09-14T10:54:31.612Z,3.70
2022-09-14T10:57:54.121Z,3.60
2022-09-14T11:01:14.316Z,3.83
2022-09-14T11:04:34.835Z,3.42
2022-09-14T11:08:30.328Z,3.60
2022-09-14T11:11:58.968Z,3.25
2022-09-14T11:15:32.145Z,3.97
2022-09-14T11:18:48.421Z,3.85
2022-09-14T11:22:19.581Z,3.60
2022-09-14T11:25:33.114Z,5.13
2022-09-14T11:28:41.258Z,3.67
2022-09-14T11:32:16.798Z,3.97
2022-09-14T11:35:29.514Z,3.80
2022-09-14T11:38:47.630Z,3.00
2022-09-14T11:41:51.525Z,3.17
2022-09-14T11:45:13.814Z,3.45
2022-09-14T11:48:43.958Z,3.40
2022-09-14T11:52:07.673Z,2.88
2022-09-14T11:55:15.355Z,3.00
2022-09-14T11:58:29.675Z,2.95
2022-09-14T12:01:38.453Z,2.75
2022-09-14T12:05:05.828Z,3.00
2022-09-14T12:08:30.604Z,3.10
2022-09-14T12:11:35.234Z,2.70
2022-09-14T12:14:40.502Z,3.15
2022-09-14T12:17:42.574Z,2.95
2022-09-14T12:20:46.795Z,2.70
2022-09-14T12:23:52.237Z,2.60
2022-09-14T12:26:54.276Z,2.60
2022-09-14T12:29:55.688Z,2.30
2022-09-14T12:32:57.112Z,2.30
2022-09-14T12:36:01.196Z,1.80
2022-09-14T12:39:02.553Z,1.77
2022-09-14T12:42:25.491Z,1.98
2022-09-14T12:45:59.858Z,1.75
2022-09-14T12:49:04.233Z,1.58
2022-09-14T12:52:20.259Z,1.50
2022-09-14T12:55:42.727Z,1.83
2022-09-14T12:58:56.604Z,1.50
2022-09-14T13:02:34.125Z,1.40
2022-09-14T13:05:35.753Z,1.20
2022-09-14T13:08:37.234Z,1.30
2022-09-14T13:11:41.234Z,1.35
2022-09-14T13:14:53.777Z,1.20
2022-09-14T13:18:03.853Z,1.20
2022-09-14T13:21:20.988Z,1.08
2022-09-14T13:24:29.426Z,1.20
2022-09-14T13:27:38.022Z,1.20
2022-09-14T13:30:41.803Z,1.00
2022-09-14T13:33:51.740Z,1.40
2022-09-14T13:36:55.661Z,1.17
2022-09-14T13:39:58.365Z,1.10
2022-09-14T13:43:00.261Z,0.93
2022-09-14T13:46:05.059Z,1.00
2022-09-14T13:49:07.575Z,1.00
2022-09-14T13:52:31.056Z,0.93
2022-09-14T13:55:45.108Z,1.15
2022-09-14T13:58:48.505Z,1.10
2022-09-14T14:01:53.793Z,1.10
2022-09-14T14:04:55.367Z,0.90
2022-09-14T14:07:59.271Z,1.00
2022-09-14T14:11:02.696Z,1.60
2022-09-14T14:14:16.288Z,1.20
2022-09-14T14:17:25.237Z,1.10
2022-09-14T14:20:26.800Z,1.20
2022-09-14T14:23:28.714Z,1.08
2022-09-14T14:29:31.625Z,1.20
2022-09-14T14:32:33.455Z,1.17
2022-09-14T14:38:36.518Z,1.27
2022-09-14T14:41:38.019Z,1.38
2022-09-14T14:44:39.689Z,1.23
2022-09-14T14:47:41.338Z,0.95
2022-09-14T14:50:42.757Z,1.10
2022-09-14T14:53:44.669Z,1.05
2022-09-14T14:59:52.705Z,1.05
2022-09-14T15:02:54.201Z,1.30
2022-09-14T15:05:55.595Z,1.55
2022-09-14T15:08:57.014Z,1.50
2022-09-14T15:11:58.428Z,1.30
2022-09-14T15:15:00.452Z,1.10
2022-09-14T15:18:01.931Z,1.20
2022-09-14T15:21:03.429Z,1.20
2022-09-14T15:24:05.366Z,1.30
2022-09-14T15:30:10.214Z,1.30
2022-09-14T15:33:11.669Z,1.30
2022-09-14T15:36:13.248Z,1.35
2022-09-14T15:39:14.837Z,1.50
2022-09-14T15:42:19.463Z,1.35
2022-09-14T15:45:20.962Z,1.30
2022-09-14T15:48:22.417Z,1.25
2022-09-14T15:51:23.922Z,1.17
2022-09-14T15:54:30.761Z,1.40
2022-09-14T15:57:32.622Z,1.80
2022-09-14T16:06:38.373Z,1.60
2022-09-14T16:12:42.513Z,1.40
2022-09-14T16:15:44.089Z,1.58
2022-09-14T16:18:46.023Z,1.60
2022-09-14T16:24:54.950Z,1.80
2022-09-14T16:27:56.365Z,1.70
2022-09-14T16:31:08.185Z,1.77
2022-09-14T16:34:21.885Z,1.83
2022-09-14T16:37:23.281Z,1.70
2022-09-14T16:40:25.393Z,1.70
2022-09-14T16:43:27.802Z,1.85
2022-09-14T16:46:30.929Z,1.67
2022-09-14T16:49:32.482Z,1.80
2022-09-14T16:52:33.883Z,1.60
2022-09-14T16:55:35.579Z,1.67
2022-09-14T16:58:38.467Z,1.67
2022-09-14T17:01:42.432Z,1.80
2022-09-14T17:04:43.898Z,1.63
2022-09-14T17:07:45.285Z,1.70
2022-09-14T17:10:47.197Z,2.03
2022-09-14T17:16:50.322Z,1.95
2022-09-14T17:19:52.041Z,1.90
2022-09-14T17:22:53.807Z,1.70
2022-09-14T17:25:55.733Z,1.80
2022-09-14T17:31:59.177Z,1.90
2022-09-14T17:35:01.799Z,1.83
2022-09-14T17:38:03.969Z,1.60
2022-09-14T17:41:08.651Z,1.90
2022-09-14T17:44:12.687Z,2.10
2022-09-14T17:47:14.259Z,1.95
2022-09-14T17:50:16.652Z,2.10
2022-09-14T17:53:18.189Z,1.83
2022-09-14T17:56:23.987Z,1.95
2022-09-14T17:59:25.430Z,1.90
2022-09-14T18:02:26.888Z,2.00
2022-09-14T18:05:28.314Z,2.20
2022-09-14T18:08:29.732Z,1.67
2022-09-14T18:11:31.770Z,2.20
2022-09-14T18:14:33.310Z,2.00
2022-09-14T18:17:34.803Z,1.92
2022-09-14T18:20:37.735Z,2.00
2022-09-14T18:23:39.414Z,1.92
2022-09-14T18:26:41.035Z,2.03
2022-09-14T18:29:42.425Z,1.92
2022-09-14T18:32:46.166Z,1.83
2022-09-14T18:35:47.601Z,2.03
2022-09-14T18:38:49.635Z,2.13
2022-09-14T18:41:53.551Z,2.20
2022-09-14T18:44:56.229Z,2.20
2022-09-14T18:47:57.743Z,2.20
2022-09-14T18:51:04.851Z,2.15
2022-09-14T18:54:07.591Z,2.15
2022-09-14T18:57:09.399Z,2.30
2022-09-14T19:00:14.061Z,2.40
2022-09-14T19:03:19.168Z,2.40
2022-09-14T19:06:20.654Z,2.50
2022-09-14T19:09:22.142Z,2.50
2022-09-14T19:12:24.024Z,2.08
2022-09-14T19:15:27.752Z,2.30
2022-09-14T19:18:32.229Z,2.33
2022-09-14T19:21:34.109Z,2.50
2022-09-14T19:27:37.012Z,2.50
2022-09-14T19:30:42.523Z,2.30
2022-09-14T19:33:45.644Z,2.28
2022-09-14T19:36:48.081Z,2.35
2022-09-14T19:39:49.672Z,2.50
2022-09-14T19:42:51.759Z,2.22
2022-09-14T19:45:53.253Z,2.60
2022-09-14T19:48:54.909Z,2.20
2022-09-14T19:51:56.521Z,2.55
2022-09-14T19:54:58.016Z,2.88
2022-09-14T19:57:59.494Z,2.45
2022-09-14T20:01:00.908Z,2.50
2022-09-14T20:04:03.673Z,2.42
2022-09-14T20:07:07.432Z,2.60
2022-09-14T20:10:09.925Z,2.08
2022-09-14T20:13:11.357Z,2.40
2022-09-14T20:16:19.175Z,2.22
2022-09-14T20:19:23.355Z,2.15
2022-09-14T20:22:24.743Z,2.95
2022-09-14T20:25:26.190Z,2.92
2022-09-14T20:28:28.361Z,2.53
2022-09-14T20:31:30.965Z,3.08
2022-09-14T20:34:32.679Z,2.58
2022-09-14T20:37:34.082Z,2.53
2022-09-14T20:40:35.565Z,2.92
2022-09-14T20:43:39.285Z,2.72
2022-09-14T20:46:43.825Z,2.60
2022-09-14T20:49:45.393Z,2.80
2022-09-14T20:52:46.794Z,3.30
2022-09-14T20:55:48.234Z,3.20
2022-09-14T20:58:53.589Z,3.10
2022-09-14T21:01:55.171Z,3.20
2022-09-14T21:04:56.917Z,2.97
2022-09-14T21:07:58.399Z,2.80
2022-09-14T21:11:12.525Z,3.08
2022-09-14T21:14:16.610Z,3.15
2022-09-14T21:17:18.167Z,3.00
2022-09-14T21:20:19.630Z,2.95
2022-09-14T21:23:21.021Z,2.97
2022-09-14T21:26:23.137Z,3.20
2022-09-14T21:29:24.766Z,2.90
2022-09-14T21:32:26.189Z,3.15
2022-09-14T21:35:31.641Z,3.45
2022-09-14T21:38:35.861Z,3.63
2022-09-14T21:41:38.787Z,3.08
2022-09-14T21:44:40.191Z,2.92
2022-09-14T21:47:41.645Z,3.25
2022-09-14T21:50:47.252Z,2.88
2022-09-14T21:53:52.190Z,3.08
2022-09-14T21:56:54.207Z,2.92
2022-09-14T21:59:55.612Z,3.05
2022-09-14T22:02:57.069Z,2.55
2022-09-14T22:06:02.059Z,2.80
2022-09-14T22:09:03.718Z,2.67
2022-09-14T22:12:05.283Z,2.55
2022-09-14T22:15:07.075Z,2.10
2022-09-14T22:18:08.476Z,2.35
2022-09-14T22:21:09.980Z,1.80
2022-09-14T22:24:14.739Z,1.80
2022-09-14T22:27:16.191Z,2.03
2022-09-14T22:30:18.876Z,2.20
2022-09-14T22:33:24.754Z,2.10
2022-09-14T22:36:26.895Z,1.83
2022-09-14T22:39:28.289Z,2.20
2022-09-14T22:42:31.461Z,1.80
2022-09-14T22:45:32.855Z,1.92
2022-09-14T22:48:35.067Z,2.35
2022-09-14T22:51:36.805Z,1.90
2022-09-14T22:54:38.204Z,2.05
2022-09-14T22:57:39.607Z,1.65
2022-09-14T23:00:42.426Z,1.77
2022-09-14T23:03:44.132Z,1.70
2022-09-14T23:06:47.514Z,2.03
2022-09-14T23:09:49.096Z,1.92
2022-09-14T23:12:50.556Z,1.70
2022-09-14T23:15:52.002Z,1.73
2022-09-14T23:18:55.732Z,1.80
2022-09-14T23:21:57.161Z,1.70
2022-09-14T23:24:58.589Z,1.70
2022-09-14T23:28:00.082Z,1.83
2022-09-14T23:31:01.785Z,1.80
2022-09-14T23:34:04.959Z,2.17
2022-09-14T23:37:06.392Z,1.80
2022-09-14T23:40:08.471Z,2.00
2022-09-14T23:43:10.343Z,2.30
2022-09-14T23:46:12.557Z,2.20
2022-09-14T23:49:14.261Z,2.13
2022-09-14T23:52:15.662Z,2.35
2022-09-14T23:55:17.254Z,2.40
2022-09-14T23:58:18.680Z,2.20
